createdAt,value
2022-09-23T00:01:54.009Z,59.32
2022-09-23T00:04:24.571Z,59.58
2022-09-23T00:06:57.285Z,59.35
2022-09-23T00:09:26.356Z,59.21
2022-09-23T00:11:55.600Z,59.65
2022-09-23T00:14:28.955Z,59.96
2022-09-23T00:17:01.844Z,60.51
2022-09-23T00:19:33.955Z,60.59
2022-09-23T00:22:03.770Z,60.40
2022-09-23T00:24:34.294Z,60.76
2022-09-23T00:27:02.473Z,60.48
2022-09-23T00:29:32.146Z,61.23
2022-09-23T00:32:01.706Z,60.42
2022-09-23T00:34:30.991Z,59.47
2022-09-23T00:37:01.550Z,59.52
2022-09-23T00:39:29.898Z,60.64
2022-09-23T00:41:58.603Z,61.25
2022-09-23T00:44:47.095Z,62.75
2022-09-23T00:47:21.895Z,63.42
2022-09-23T00:49:55.082Z,64.85
2022-09-23T00:52:25.835Z,66.48
2022-09-23T00:54:56.798Z,64.62
2022-09-23T00:57:25.820Z,64.07
2022-09-23T01:00:02.651Z,63.01
2022-09-23T01:02:34.089Z,63.20
2022-09-23T01:05:03.330Z,62.95
2022-09-23T01:07:32.244Z,60.80
2022-09-23T01:10:01.300Z,59.38
2022-09-23T01:12:42.730Z,61.46
2022-09-23T01:15:17.792Z,60.24
2022-09-23T01:17:54.147Z,59.29
2022-09-23T01:20:41.889Z,59.46
2022-09-23T01:23:18.367Z,59.12
2022-09-23T01:26:00.057Z,58.93
2022-09-23T01:28:37.148Z,58.00
2022-09-23T01:31:10.926Z,58.33
2022-09-23T01:33:51.182Z,58.24
2022-09-23T01:36:25.023Z,59.65
2022-09-23T01:38:59.262Z,60.19
2022-09-23T01:41:35.575Z,61.60
2022-09-23T01:44:06.912Z,62.21
2022-09-23T01:46:43.104Z,63.45
2022-09-23T01:49:15.094Z,61.66
2022-09-23T01:51:47.308Z,60.11
2022-09-23T01:54:18.940Z,60.40
2022-09-23T01:56:52.482Z,60.46
2022-09-23T01:59:24.738Z,62.32
2022-09-23T02:01:57.879Z,62.01
2022-09-23T02:04:30.744Z,62.54
2022-09-23T02:07:01.529Z,65.07
2022-09-23T02:09:39.015Z,64.32
2022-09-23T02:12:12.710Z,63.27
2022-09-23T02:14:43.921Z,62.29
2022-09-23T02:17:15.924Z,62.99
2022-09-23T02:19:53.284Z,63.50
2022-09-23T02:22:26.319Z,63.42
2022-09-23T02:25:03.149Z,64.15
2022-09-23T02:27:33.779Z,65.16
2022-09-23T02:30:04.588Z,65.97
2022-09-23T02:32:42.256Z,66.25
2022-09-23T02:35:18.141Z,65.22
2022-09-23T02:37:51.455Z,67.10
2022-09-23T02:40:23.733Z,68.27
2022-09-23T02:42:58.182Z,67.12
2022-09-23T02:45:26.498Z,66.79
2022-09-23T02:48:04.939Z,66.03
2022-09-23T02:50:33.980Z,66.59
2022-09-23T02:53:02.760Z,66.42
2022-09-23T02:55:33.871Z,65.54
2022-09-23T02:58:02.871Z,66.04
2022-09-23T03:00:38.162Z,66.64
2022-09-23T03:03:13.832Z,65.77
2022-09-23T03:05:47.494Z,64.22
2022-09-23T03:08:30.509Z,64.68
2022-09-23T03:11:11.778Z,65.88
2022-09-23T03:13:48.930Z,66.09
2022-09-23T03:16:19.952Z,65.41
2022-09-23T03:18:53.001Z,65.91
2022-09-23T03:21:24.902Z,66.70
2022-09-23T03:23:54.706Z,65.66
2022-09-23T03:26:24.714Z,65.87
2022-09-23T03:28:53.239Z,66.75
2022-09-23T03:31:21.627Z,67.52
2022-09-23T03:33:53.596Z,67.38
2022-09-23T03:36:43.331Z,66.63
2022-09-23T03:39:13.939Z,64.88
2022-09-23T03:41:44.768Z,63.49
2022-09-23T03:44:13.344Z,67.03
2022-09-23T03:46:46.758Z,65.10
2022-09-23T03:49:17.968Z,65.47
2022-09-23T03:51:46.153Z,66.22
2022-09-23T03:54:14.259Z,64.84
2022-09-23T03:56:42.506Z,63.15
2022-09-23T03:59:10.683Z,63.73
2022-09-23T04:01:38.788Z,61.91
2022-09-23T04:04:07.025Z,62.16
2022-09-23T04:06:36.899Z,62.52
2022-09-23T04:09:05.152Z,61.05
2022-09-23T04:11:33.300Z,60.21
2022-09-23T04:14:01.376Z,65.88
2022-09-23T04:16:29.652Z,63.80
2022-09-23T04:18:57.840Z,61.57
2022-09-23T04:21:26.429Z,64.09
2022-09-23T04:23:56.244Z,63.85
2022-09-23T04:26:24.649Z,62.32
2022-09-23T04:28:52.748Z,62.19
2022-09-23T04:31:23.264Z,64.63
2022-09-23T04:33:51.460Z,65.89
2022-09-23T04:36:19.523Z,63.00
2022-09-23T04:38:49.204Z,62.50
2022-09-23T04:41:19.411Z,59.47
2022-09-23T04:43:47.653Z,59.61
2022-09-23T04:46:16.675Z,59.69
2022-09-23T04:48:44.822Z,59.77
2022-09-23T04:51:14.064Z,59.58
2022-09-23T04:53:43.591Z,63.14
2022-09-23T04:56:12.925Z,60.89
2022-09-23T04:58:43.035Z,62.01
2022-09-23T05:01:12.053Z,59.57
2022-09-23T05:03:41.259Z,62.01
2022-09-23T05:06:09.864Z,60.48
2022-09-23T05:08:37.962Z,59.46
2022-09-23T05:11:06.462Z,59.30
2022-09-23T05:13:35.503Z,57.52
2022-09-23T05:16:06.306Z,56.80
2022-09-23T05:18:35.413Z,58.60
2022-09-23T05:21:04.080Z,57.00
2022-09-23T05:23:32.190Z,60.83
2022-09-23T05:26:01.139Z,61.10
2022-09-23T05:28:30.069Z,62.03
2022-09-23T05:31:03.199Z,61.25
2022-09-23T05:33:32.935Z,59.78
2022-09-23T05:36:04.923Z,56.93
2022-09-23T05:38:33.217Z,59.07
2022-09-23T05:41:02.086Z,58.80
2022-09-23T05:43:30.717Z,60.58
2022-09-23T05:46:07.768Z,59.89
2022-09-23T05:48:38.357Z,58.58
2022-09-23T05:51:12.946Z,59.40
2022-09-23T05:53:42.775Z,59.83
2022-09-23T05:56:10.933Z,57.89
2022-09-23T05:58:39.050Z,60.26
2022-09-23T06:01:10.883Z,60.84
2022-09-23T06:03:40.863Z,63.57
2022-09-23T06:06:09.182Z,63.13
2022-09-23T06:08:37.883Z,60.62
2022-09-23T06:11:07.793Z,57.88
2022-09-23T06:13:38.387Z,61.12
2022-09-23T06:16:08.180Z,59.66
2022-09-23T06:18:36.903Z,58.33
2022-09-23T06:21:06.814Z,56.97
2022-09-23T06:23:38.435Z,54.33
2022-09-23T06:26:09.844Z,56.97
2022-09-23T06:28:39.309Z,58.73
2022-09-23T06:31:13.099Z,59.64
2022-09-23T06:33:41.948Z,58.22
2022-09-23T06:36:12.205Z,60.09
2022-09-23T06:38:40.864Z,58.11
2022-09-23T06:41:09.203Z,57.00
2022-09-23T06:43:37.392Z,55.87
2022-09-23T06:46:07.390Z,56.48
2022-09-23T06:48:36.393Z,56.41
2022-09-23T06:51:07.366Z,53.59
2022-09-23T06:53:37.244Z,55.50
2022-09-23T06:56:06.639Z,54.92
2022-09-23T06:58:35.433Z,52.86
2022-09-23T07:01:03.634Z,52.41
2022-09-23T07:03:32.119Z,54.64
2022-09-23T07:06:00.723Z,54.37
2022-09-23T07:08:29.747Z,54.71
2022-09-23T07:11:00.497Z,55.18
2022-09-23T07:13:29.553Z,55.04
2022-09-23T07:15:58.615Z,53.73
2022-09-23T07:18:27.606Z,54.92
2022-09-23T07:20:58.931Z,55.51
2022-09-23T07:23:27.146Z,57.53
2022-09-23T07:25:59.715Z,55.67
2022-09-23T07:28:29.534Z,55.34
2022-09-23T07:31:00.586Z,55.23
2022-09-23T07:33:32.495Z,55.50
2022-09-23T07:36:04.882Z,55.63
2022-09-23T07:38:33.094Z,56.68
2022-09-23T07:41:05.287Z,56.60
2022-09-23T07:43:35.159Z,57.80
2022-09-23T07:46:05.077Z,57.81
2022-09-23T07:48:34.618Z,57.14
2022-09-23T07:51:07.380Z,55.96
2022-09-23T07:53:36.170Z,57.02
2022-09-23T07:56:06.734Z,54.21
2022-09-23T07:58:36.526Z,55.87
2022-09-23T08:01:05.829Z,52.92
2022-09-23T08:03:35.164Z,50.71
2022-09-23T08:06:07.459Z,50.64
2022-09-23T08:08:35.839Z,49.29
2022-09-23T08:11:04.666Z,50.03
2022-09-23T08:13:33.343Z,52.76
2022-09-23T08:16:03.176Z,52.23
2022-09-23T08:18:31.426Z,49.90
2022-09-23T08:20:59.589Z,50.86
2022-09-23T08:23:27.913Z,48.43
2022-09-23T08:26:00.147Z,47.98
2022-09-23T08:28:28.964Z,48.53
2022-09-23T08:30:57.371Z,46.29
2022-09-23T08:33:27.048Z,47.12
2022-09-23T08:36:00.117Z,48.49
2022-09-23T08:38:28.755Z,45.59
2022-09-23T08:41:04.641Z,44.35
2022-09-23T08:43:34.463Z,47.71
2022-09-23T08:46:05.302Z,47.82
2022-09-23T08:48:36.589Z,47.45
2022-09-23T08:51:06.609Z,45.88
2022-09-23T08:53:35.746Z,46.37
2022-09-23T08:56:07.255Z,46.13
2022-09-23T08:58:43.303Z,46.47
2022-09-23T09:01:14.975Z,44.11
2022-09-23T09:03:47.513Z,45.69
2022-09-23T09:06:19.172Z,45.62
2022-09-23T09:08:52.413Z,47.02
2022-09-23T09:11:21.669Z,43.39
2022-09-23T09:13:53.176Z,47.66
2022-09-23T09:16:55.413Z,46.04
2022-09-23T09:19:20.553Z,46.23
2022-09-23T09:21:49.511Z,46.57
2022-09-23T09:24:18.992Z,46.46
2022-09-23T09:26:47.284Z,45.21
2022-09-23T09:29:34.285Z,47.15
2022-09-23T09:32:12.518Z,46.80
2022-09-23T09:34:45.110Z,45.47
2022-09-23T09:37:17.044Z,45.27
2022-09-23T09:39:45.227Z,46.49
2022-09-23T09:42:18.670Z,46.56
2022-09-23T09:44:50.776Z,46.13
2022-09-23T09:47:29.673Z,45.71
2022-09-23T09:50:05.682Z,44.43
2022-09-23T09:52:33.842Z,44.51
2022-09-23T09:55:17.521Z,43.37
2022-09-23T09:57:48.036Z,42.51
2022-09-23T10:00:21.124Z,42.92
2022-09-23T10:02:53.568Z,43.65
2022-09-23T10:05:28.491Z,45.21
2022-09-23T10:07:56.713Z,45.62
2022-09-23T10:10:32.709Z,44.98
2022-09-23T10:13:14.802Z,44.79
2022-09-23T10:15:45.219Z,46.37
2022-09-23T10:18:19.745Z,45.30
2022-09-23T10:20:49.433Z,45.56
2022-09-23T10:23:21.161Z,45.87
2022-09-23T10:25:57.705Z,46.64
2022-09-23T10:28:46.923Z,46.50
2022-09-23T10:31:16.842Z,46.40
2022-09-23T10:33:49.216Z,47.05
2022-09-23T10:36:19.844Z,45.52
2022-09-23T10:38:50.078Z,47.29
2022-09-23T10:41:49.885Z,46.83
2022-09-23T10:44:45.975Z,44.74
2022-09-23T10:47:19.605Z,43.89
2022-09-23T10:49:53.408Z,43.11
2022-09-23T10:52:32.307Z,43.68
2022-09-23T10:55:06.825Z,43.62
2022-09-23T10:57:48.475Z,45.06
2022-09-23T11:00:30.279Z,44.36
2022-09-23T11:03:15.309Z,44.84
2022-09-23T11:05:47.968Z,44.51
2022-09-23T11:08:32.443Z,44.19
2022-09-23T11:11:11.726Z,44.37
2022-09-23T11:13:54.528Z,44.21
2022-09-23T11:16:29.711Z,44.54
2022-09-23T11:19:22.263Z,44.00
2022-09-23T11:21:58.419Z,43.89
2022-09-23T11:24:52.199Z,44.30
2022-09-23T11:27:29.861Z,44.21
2022-09-23T11:30:07.556Z,44.22
2022-09-23T11:32:44.000Z,43.51
2022-09-23T11:35:16.328Z,44.88
2022-09-23T11:37:46.059Z,48.10
2022-09-23T11:40:19.374Z,47.51
2022-09-23T11:42:52.305Z,47.61
2022-09-23T11:45:23.478Z,47.25
2022-09-23T11:51:23.544Z,46.93
2022-09-23T11:53:55.177Z,46.38
2022-09-23T11:56:34.929Z,46.82
2022-09-23T11:59:07.700Z,47.10
2022-09-23T12:01:43.097Z,47.03
2022-09-23T12:04:21.141Z,48.01
2022-09-23T12:06:51.636Z,48.12
2022-09-23T12:09:40.897Z,47.52
2022-09-23T12:12:15.286Z,47.96
2022-09-23T12:14:56.301Z,48.31
2022-09-23T12:17:38.266Z,47.07
2022-09-23T12:20:13.309Z,47.23
2022-09-23T12:22:48.700Z,47.79
2022-09-23T12:25:27.937Z,48.92
2022-09-23T12:28:02.364Z,49.47
2022-09-23T12:30:33.878Z,50.24
2022-09-23T12:33:09.153Z,49.21
2022-09-23T12:35:42.612Z,49.95
2022-09-23T12:38:14.385Z,50.19
2022-09-23T12:40:44.718Z,49.44
2022-09-23T12:43:19.168Z,50.71
2022-09-23T12:45:48.217Z,50.10
2022-09-23T12:48:34.045Z,48.78
2022-09-23T12:51:15.946Z,49.14
2022-09-23T12:53:53.298Z,49.02
2022-09-23T12:56:23.065Z,49.21
2022-09-23T12:59:14.668Z,48.80
2022-09-23T13:01:43.293Z,48.15
2022-09-23T13:04:43.509Z,48.04
2022-09-23T13:07:11.704Z,47.73
2022-09-23T13:09:42.182Z,48.39
2022-09-23T13:12:19.604Z,47.69
2022-09-23T13:14:51.470Z,47.18
2022-09-23T13:17:32.209Z,46.92
2022-09-23T13:20:02.111Z,47.14
2022-09-23T13:22:49.675Z,47.96
2022-09-23T13:25:20.688Z,49.22
2022-09-23T13:27:50.865Z,48.36
2022-09-23T13:30:25.722Z,48.95
2022-09-23T13:33:01.573Z,48.50
2022-09-23T13:35:33.618Z,49.19
2022-09-23T13:38:10.335Z,49.15
2022-09-23T13:40:40.435Z,50.16
2022-09-23T13:43:12.820Z,50.15
2022-09-23T13:45:43.787Z,49.64
2022-09-23T13:48:13.759Z,49.60
2022-09-23T13:50:45.303Z,50.07
2022-09-23T13:53:17.720Z,50.22
2022-09-23T13:55:49.035Z,49.61
2022-09-23T13:58:21.303Z,50.31
2022-09-23T14:00:51.964Z,48.32
2022-09-23T14:03:24.941Z,50.12
2022-09-23T14:05:54.229Z,51.15
2022-09-23T14:08:22.966Z,51.13
2022-09-23T14:10:51.432Z,51.17
2022-09-23T14:13:25.550Z,51.14
2022-09-23T14:15:58.371Z,51.66
2022-09-23T14:18:30.077Z,51.81
2022-09-23T14:20:58.232Z,51.45
2022-09-23T14:23:26.439Z,51.59
2022-09-23T14:25:55.169Z,52.72
2022-09-23T14:28:24.271Z,52.10
2022-09-23T14:30:53.939Z,51.37
2022-09-23T14:33:27.032Z,52.81
2022-09-23T14:35:57.593Z,51.66
2022-09-23T14:38:45.253Z,52.77
2022-09-23T14:41:18.302Z,52.17
2022-09-23T14:43:50.709Z,51.79
2022-09-23T14:46:20.409Z,52.56
2022-09-23T14:48:58.438Z,52.65
2022-09-23T14:51:34.162Z,52.70
2022-09-23T14:54:21.119Z,53.40
2022-09-23T14:56:49.438Z,54.73
2022-09-23T14:59:25.805Z,55.16
2022-09-23T15:01:54.536Z,55.30
2022-09-23T15:04:32.417Z,53.46
2022-09-23T15:07:02.794Z,54.92
2022-09-23T15:09:33.223Z,55.28
2022-09-23T15:12:03.068Z,55.00
2022-09-23T15:14:38.236Z,54.65
2022-09-23T15:17:09.559Z,54.92
2022-09-23T15:19:39.213Z,54.86
2022-09-23T15:22:08.754Z,54.66
2022-09-23T15:24:44.905Z,54.89
2022-09-23T15:27:24.035Z,55.17
2022-09-23T15:29:52.429Z,55.81
2022-09-23T15:32:20.547Z,55.27
2022-09-23T15:34:51.704Z,56.66
2022-09-23T15:37:19.864Z,56.59
2022-09-23T15:39:48.291Z,56.96
2022-09-23T15:42:18.418Z,57.37
2022-09-23T15:44:46.597Z,57.56
2022-09-23T15:47:17.302Z,58.01
2022-09-23T15:49:47.214Z,57.72
2022-09-23T15:52:17.760Z,57.19
2022-09-23T15:54:46.095Z,56.54
2022-09-23T15:57:14.286Z,57.42
2022-09-23T15:59:42.616Z,58.43
2022-09-23T16:02:16.613Z,59.07
2022-09-23T16:04:50.499Z,58.67
2022-09-23T16:07:21.197Z,59.39
2022-09-23T16:09:49.451Z,59.52
2022-09-23T16:12:17.783Z,60.28
2022-09-23T16:14:45.980Z,60.15
2022-09-23T16:17:15.150Z,61.03
2022-09-23T16:19:43.619Z,61.03
2022-09-23T16:22:13.062Z,61.02
2022-09-23T16:24:42.830Z,61.23
2022-09-23T16:27:12.793Z,62.08
2022-09-23T16:29:40.977Z,62.24
2022-09-23T16:32:09.117Z,62.20
2022-09-23T16:34:37.268Z,62.84
2022-09-23T16:37:07.191Z,63.23
2022-09-23T16:39:35.473Z,63.54
2022-09-23T16:42:05.132Z,63.72
2022-09-23T16:44:33.385Z,63.24
2022-09-23T16:47:01.577Z,63.27
2022-09-23T16:49:29.827Z,62.30
2022-09-23T16:51:57.959Z,62.20
2022-09-23T16:54:26.059Z,62.51
2022-09-23T16:56:55.225Z,62.90
2022-09-23T16:59:44.838Z,62.66
2022-09-23T17:02:30.973Z,63.11
2022-09-23T17:04:59.188Z,63.35
2022-09-23T17:07:27.428Z,62.27
2022-09-23T17:09:55.643Z,62.02
2022-09-23T17:12:27.001Z,63.51
2022-09-23T17:14:58.176Z,64.31
2022-09-23T17:17:27.844Z,63.11
2022-09-23T17:19:57.342Z,64.18
2022-09-23T17:22:26.825Z,64.76
2022-09-23T17:24:54.978Z,64.20
2022-09-23T17:27:25.066Z,65.65
2022-09-23T17:29:53.801Z,65.56
2022-09-23T17:32:23.547Z,66.00
2022-09-23T17:34:51.811Z,65.50
2022-09-23T17:37:20.092Z,64.94
2022-09-23T17:39:48.520Z,66.68
2022-09-23T17:42:18.298Z,66.03
2022-09-23T17:44:47.475Z,66.12
2022-09-23T17:47:15.747Z,65.84
2022-09-23T17:49:47.677Z,66.51
2022-09-23T17:52:15.851Z,66.42
2022-09-23T17:54:45.231Z,66.61
2022-09-23T17:57:13.544Z,66.81
2022-09-23T17:59:41.630Z,66.96
2022-09-23T18:02:15.403Z,66.78
2022-09-23T18:04:45.488Z,67.05
2022-09-23T18:07:13.701Z,67.46
2022-09-23T18:09:41.881Z,67.46
2022-09-23T18:12:10.072Z,67.03
2022-09-23T18:14:38.404Z,67.11
2022-09-23T18:17:06.569Z,66.23
2022-09-23T18:19:34.809Z,66.45
2022-09-23T18:22:04.443Z,66.25
2022-09-23T18:24:37.978Z,66.85
2022-09-23T18:27:06.803Z,67.48
2022-09-23T18:29:35.502Z,67.88
2022-09-23T18:32:03.975Z,68.37
2022-09-23T18:34:32.206Z,68.06
2022-09-23T18:37:00.314Z,68.21
2022-09-23T18:39:29.870Z,68.28
2022-09-23T18:41:57.983Z,69.34
2022-09-23T18:44:26.667Z,69.10
2022-09-23T18:46:54.871Z,68.48
2022-09-23T18:49:40.355Z,67.99
2022-09-23T18:52:08.547Z,68.49
2022-09-23T18:54:38.073Z,68.51
2022-09-23T18:57:06.308Z,68.04
2022-09-23T18:59:34.429Z,68.71
2022-09-23T19:02:02.706Z,68.75
2022-09-23T19:04:30.921Z,67.90
2022-09-23T19:06:59.028Z,68.35
2022-09-23T19:09:27.195Z,68.17
2022-09-23T19:11:57.393Z,68.15
2022-09-23T19:14:25.628Z,67.88
2022-09-23T19:16:53.841Z,67.87
2022-09-23T19:19:22.020Z,67.50
2022-09-23T19:21:50.453Z,67.17
2022-09-23T19:24:20.617Z,66.54
2022-09-23T19:26:50.413Z,66.56
2022-09-23T19:29:22.006Z,66.91
2022-09-23T19:31:51.402Z,67.18
2022-09-23T19:34:22.810Z,66.98
2022-09-23T19:36:51.681Z,67.01
2022-09-23T19:39:21.092Z,67.05
2022-09-23T19:41:50.666Z,66.58
2022-09-23T19:44:20.384Z,67.59
2022-09-23T19:47:13.657Z,67.51
2022-09-23T19:49:41.920Z,68.31
2022-09-23T19:52:10.056Z,67.21
2022-09-23T19:54:38.443Z,67.40
2022-09-23T19:57:06.572Z,67.50
2022-09-23T19:59:36.122Z,67.41
2022-09-23T20:02:04.301Z,68.63
2022-09-23T20:04:33.120Z,69.00
2022-09-23T20:07:01.244Z,68.47
2022-09-23T20:09:29.350Z,69.11
2022-09-23T20:11:57.711Z,69.36
2022-09-23T20:14:27.218Z,68.71
2022-09-23T20:16:56.777Z,69.00
2022-09-23T20:19:25.063Z,69.27
2022-09-23T20:22:13.241Z,70.26
2022-09-23T20:24:41.539Z,70.93
2022-09-23T20:27:11.362Z,70.15
2022-09-23T20:29:39.737Z,71.19
2022-09-23T20:32:10.248Z,71.53
2022-09-23T20:34:38.465Z,70.92
2022-09-23T20:37:06.669Z,71.33
2022-09-23T20:39:34.807Z,71.23
2022-09-23T20:42:03.500Z,72.10
2022-09-23T20:44:31.647Z,71.96
2022-09-23T20:46:59.813Z,71.94
2022-09-23T20:49:34.248Z,72.27
2022-09-23T20:52:03.130Z,72.37
2022-09-23T20:54:31.835Z,72.45
2022-09-23T20:57:00.616Z,73.13
2022-09-23T20:59:28.829Z,72.91
2022-09-23T21:01:58.270Z,73.16
2022-09-23T21:04:27.227Z,73.54
2022-09-23T21:06:57.642Z,73.73
2022-09-23T21:09:27.204Z,74.00
2022-09-23T21:11:55.574Z,74.31
2022-09-23T21:14:23.824Z,74.27
2022-09-23T21:16:51.976Z,74.18
2022-09-23T21:19:20.506Z,75.09
2022-09-23T21:21:48.626Z,74.94
2022-09-23T21:25:08.488Z,74.36
2022-09-23T21:27:08.214Z,73.85
2022-09-23T21:29:36.334Z,75.12
2022-09-23T21:32:04.697Z,75.86
2022-09-23T21:34:32.881Z,74.16
2022-09-23T21:37:01.010Z,75.33
2022-09-23T21:39:30.585Z,75.66
2022-09-23T21:41:58.819Z,75.42
2022-09-23T21:44:26.904Z,74.54
2022-09-23T21:46:55.155Z,74.76
2022-09-23T21:49:23.375Z,74.84
2022-09-23T21:51:55.244Z,75.38
2022-09-23T21:54:23.427Z,74.55
2022-09-23T21:56:53.985Z,75.51
2022-09-23T21:59:22.105Z,75.74
2022-09-23T22:01:54.053Z,75.97
2022-09-23T22:04:22.720Z,75.82
2022-09-23T22:06:50.887Z,75.27
2022-09-23T22:09:19.708Z,76.44
2022-09-23T22:12:08.774Z,75.72
2022-09-23T22:14:39.225Z,76.58
2022-09-23T22:17:08.179Z,76.84
2022-09-23T22:19:44.298Z,76.43
2022-09-23T22:22:15.703Z,75.85
2022-09-23T22:24:44.378Z,77.28
2022-09-23T22:27:13.386Z,76.88
2022-09-23T22:30:00.504Z,77.26
2022-09-23T22:32:46.189Z,77.68
2022-09-23T22:35:16.790Z,76.46
2022-09-23T22:37:45.322Z,77.16
2022-09-23T22:40:14.668Z,76.52
2022-09-23T22:42:43.063Z,76.86
2022-09-23T22:45:13.334Z,77.89
2022-09-23T22:47:43.605Z,77.80
2022-09-23T22:50:14.085Z,76.83
2022-09-23T22:52:43.754Z,77.59
2022-09-23T22:55:12.198Z,77.57
2022-09-23T22:57:40.309Z,78.32
2022-09-23T23:00:09.491Z,76.95
2022-09-23T23:02:40.053Z,76.88
2022-09-23T23:05:08.661Z,77.36
2022-09-23T23:07:36.745Z,77.21
2022-09-23T23:10:10.282Z,77.05
2022-09-23T23:12:40.216Z,77.42
2022-09-23T23:15:09.377Z,77.33
2022-09-23T23:17:39.034Z,77.71
2022-09-23T23:20:08.595Z,77.18
2022-09-23T23:22:36.667Z,77.54
2022-09-23T23:25:05.002Z,77.69
2022-09-23T23:27:33.193Z,77.66
2022-09-23T23:30:01.324Z,76.72
2022-09-23T23:32:31.588Z,77.32
2022-09-23T23:35:01.165Z,76.45
2022-09-23T23:37:30.025Z,77.50
2022-09-23T23:39:58.110Z,78.47
2022-09-23T23:42:29.142Z,78.58
2022-09-23T23:44:57.373Z,77.90
2022-09-23T23:47:26.466Z,77.79
2022-09-23T23:49:54.757Z,77.33
2022-09-23T23:52:24.237Z,78.17
2022-09-23T23:54:52.348Z,77.84
2022-09-23T23:57:20.425Z,78.74
2022-09-23T23:59:48.671Z,79.58
